Time;durP1;ratioP1;P1;durP2;ratioP2;P2;SDS_P1;SDS_P2;PMS_P1;PMS_P2;Temp;Humidity;BMP_temperature;BMP_pressure;BME280_temperature;BME280_humidity;BME280_pressure;Samples;Min_cycle;Max_cycle;Signal;HPM_P1;HPM_P2
2022/04/28 00:01:06;;;;;;;;;;;;;;;;;;2213570;59;1966;-71
2022/04/28 00:03:40;;;;;;;;;;;;;;;;;;2213481;59;1238;-71
2022/04/28 00:06:14;;;;;;;;;;;;;;;;;;2214563;59;1925;-72
2022/04/28 00:08:47;;;;;;;;;;;;;;;;;;2213845;59;1575;-71
2022/04/28 00:11:20;;;;;;;;;;;;;;;;;;2213539;67;1100;-72
2022/04/28 00:13:58;;;;;;;;;;;;;;;;;;2213647;58;1288;-72
2022/04/28 00:16:31;;;;;;;;;;;;;;;;;;2212510;67;1288;-71
2022/04/28 00:19:04;;;;;;;;;;;;;;;;;;2213558;59;1333;-72
2022/04/28 00:21:38;;;;;;;;;;;;;;;;;;2214080;59;1790;-71
2022/04/28 00:24:11;;;;;;;;;;;;;;;;;;2213505;67;1933;-71
2022/04/28 00:26:44;;;;;;;;;;;;;;;;;;2214749;59;1749;-71
2022/04/28 00:29:20;;;;;;;;;;;;;;;;;;2214403;59;1294;-71
2022/04/28 00:31:54;;;;;;;;;;;;;;;;;;2212997;67;1329;-72
2022/04/28 00:34:27;;;;;;;;;;;;;;;;;;2212194;59;1176;-71
2022/04/28 00:37:00;;;;;;;;;;;;;;;;;;2215522;67;1271;-72
2022/04/28 00:39:33;;;;;;;;;;;;;;;;;;2213545;67;1200;-72
2022/04/28 00:42:13;;;;;;;;;;;;;;;;;;2213993;67;1164;-71
2022/04/28 00:44:49;;;;;;;;;;;;;;;;;;2214607;67;1985;-72
2022/04/28 00:47:22;;;;;;;;;;;;;;;;;;2213528;59;2045;-71
2022/04/28 00:52:45;;;;;;;;;;;;;;;;;;2213516;59;1678;-72
2022/04/28 00:55:18;;;;;;;;;;;;;;;;;;2213582;67;1215;-72
2022/04/28 00:57:52;;;;;;;;;;;;;;;;;;2213709;59;1685;-72
2022/04/28 01:00:28;;;;;;;;;;;;;;;;;;2213323;67;1207;-71
2022/04/28 01:03:01;;;;;;;;;;;;;;;;;;2213858;67;1239;-71
2022/04/28 01:05:34;;;;;;;;;;;;;;;;;;2216645;53;1981;-72
2022/04/28 01:08:09;;;;;;;;;;;;;;;;;;2216932;58;1721;-72
2022/04/28 01:10:42;;;;;;;;;;;;;;;;;;2217262;59;1148;-72
2022/04/28 01:13:15;;;;;;;;;;;;;;;;;;2218331;66;1188;-72
2022/04/28 01:15:52;;;;;;;;;;;;;;;;;;2217842;59;1299;-72
2022/04/28 01:18:25;;;;;;;;;;;;;;;;;;2217478;66;1195;-71
2022/04/28 01:21:05;;;;;;;;;;;;;;;;;;2217544;66;1207;-72
2022/04/28 01:23:39;;;;;;;;;;;;;;;;;;2218201;59;1211;-72
2022/04/28 01:26:12;;;;;;;;;;;;;;;;;;2216698;58;2004;-72
2022/04/28 01:28:47;;;;;;;;;;;;;;;;;;2218793;66;1083;-72
2022/04/28 01:31:20;;;;;;;;;;;;;;;;;;2218136;58;1567;-72
2022/04/28 01:33:53;;;;;;;;;;;;;;;;;;2218712;66;1265;-72
2022/04/28 01:36:29;;;;;;;;;;;;;;;;;;2217262;66;1295;-72
2022/04/28 01:39:03;;;;;;;;;;;;;;;;;;2218715;66;1268;-72
2022/04/28 01:41:36;;;;;;;;;;;;;;;;;;2218584;58;1443;-71
2022/04/28 01:44:09;;;;;;;;;;;;;;;;;;2216184;66;1226;-72
2022/04/28 01:46:43;;;;;;;;;;;;;;;;;;2217885;58;1953;-71
2022/04/28 01:49:16;;;;;;;;;;;;;;;;;;2217249;59;1238;-72
2022/04/28 01:57:30;;;;;;;;;;;;;;;;;;2216734;66;1292;-71
2022/04/28 02:00:03;;;;;;;;;;;;;;;;;;2217615;59;1195;-72
2022/04/28 02:02:37;;;;;;;;;;;;;;;;;;2217322;58;1729;-72
2022/04/28 02:05:11;;;;;;;;;;;;;;;;;;2218226;66;1941;-71
2022/04/28 02:07:47;;;;;;;;;;;;;;;;;;2217848;66;1144;-71
2022/04/28 02:10:20;;;;;;;;;;;;;;;;;;2217492;59;1198;-72
2022/04/28 02:12:55;;;;;;;;;;;;;;;;;;2217458;66;1225;-72
2022/04/28 02:15:28;;;;;;;;;;;;;;;;;;2216671;58;1880;-71
2022/04/28 02:18:01;;;;;;;;;;;;;;;;;;2217695;66;1223;-71
2022/04/28 02:20:35;;;;;;;;;;;;;;;;;;2218243;58;2045;-71
2022/04/28 02:23:11;;;;;;;;;;;;;;;;;;2212973;66;1226;-71
2022/04/28 02:25:44;;;;;;;;;;;;;;;;;;2217485;66;1935;-72
2022/04/28 02:28:18;;;;;;;;;;;;;;;;;;2217504;59;1249;-71
2022/04/28 02:30:51;;;;;;;;;;;;;;;;;;2217388;59;1682;-71
2022/04/28 02:33:24;;;;;;;;;;;;;;;;;;2217244;59;1838;-71
2022/04/28 02:35:57;;;;;;;;;;;;;;;;;;2216770;58;1698;-72
2022/04/28 02:38:33;;;;;;;;;;;;;;;;;;2217293;66;1122;-72
2022/04/28 02:41:06;;;;;;;;;;;;;;;;;;2217323;58;1211;-72
2022/04/28 02:43:39;;;;;;;;;;;;;;;;;;2216354;66;1108;-72
2022/04/28 02:46:12;;;;;;;;;;;;;;;;;;2216830;66;1937;-71
2022/04/28 02:48:45;;;;;;;;;;;;;;;;;;2216186;66;1413;-72
2022/04/28 02:51:18;;;;;;;;;;;;;;;;;;2217194;66;1113;-72
2022/04/28 02:53:54;;;;;;;;;;;;;;;;;;2216444;66;1379;-72
2022/04/28 02:56:28;;;;;;;;;;;;;;;;;;2215988;58;1580;-71
2022/04/28 02:59:01;;;;;;;;;;;;;;;;;;2216301;66;1327;-72
2022/04/28 03:01:34;;;;;;;;;;;;;;;;;;2217072;66;1270;-72
2022/04/28 03:04:07;;;;;;;;;;;;;;;;;;2219065;66;1156;-72
2022/04/28 03:12:20;;;;;;;;;;;;;;;;;;2218330;66;1179;-71
2022/04/28 03:14:54;;;;;;;;;;;;;;;;;;2213847;67;1414;-71
2022/04/28 03:17:27;;;;;;;;;;;;;;;;;;2216054;58;1720;-71
2022/04/28 03:20:00;;;;;;;;;;;;;;;;;;2217717;66;1088;-71
2022/04/28 03:22:35;;;;;;;;;;;;;;;;;;2216315;58;1582;-72
2022/04/28 03:25:12;;;;;;;;;;;;;;;;;;2218158;66;1923;-72
2022/04/28 03:27:45;;;;;;;;;;;;;;;;;;2217599;66;1108;-71
2022/04/28 03:30:18;;;;;;;;;;;;;;;;;;2217798;58;1378;-71
2022/04/28 03:32:52;;;;;;;;;;;;;;;;;;2218093;66;1121;-71
2022/04/28 03:35:25;;;;;;;;;;;;;;;;;;2218501;58;1801;-71
2022/04/28 03:37:59;;;;;;;;;;;;;;;;;;2217093;66;1219;-71
2022/04/28 03:40:35;;;;;;;;;;;;;;;;;;2218493;59;1248;-71
2022/04/28 03:43:08;;;;;;;;;;;;;;;;;;2219329;59;1156;-72
2022/04/28 03:45:42;;;;;;;;;;;;;;;;;;2216789;59;1937;-71
2022/04/28 03:48:16;;;;;;;;;;;;;;;;;;2218457;58;1367;-71
2022/04/28 03:50:49;;;;;;;;;;;;;;;;;;2216930;66;1210;-71
2022/04/28 03:53:22;;;;;;;;;;;;;;;;;;2216974;66;1239;-71
2022/04/28 03:55:58;;;;;;;;;;;;;;;;;;2218240;58;1922;-71
2022/04/28 03:58:32;;;;;;;;;;;;;;;;;;2217586;58;2062;-71
2022/04/28 04:01:05;;;;;;;;;;;;;;;;;;2217151;66;1110;-71
2022/04/28 04:03:38;;;;;;;;;;;;;;;;;;2217165;59;1185;-72
2022/04/28 04:06:12;;;;;;;;;;;;;;;;;;2217811;58;1947;-72
2022/04/28 04:08:45;;;;;;;;;;;;;;;;;;2218465;66;1199;-71
2022/04/28 04:11:21;;;;;;;;;;;;;;;;;;2217842;59;1223;-71
2022/04/28 04:13:54;;;;;;;;;;;;;;;;;;2217673;66;1251;-72
2022/04/28 04:16:27;;;;;;;;;;;;;;;;;;2216380;58;1747;-72
2022/04/28 04:19:00;;;;;;;;;;;;;;;;;;2217856;66;1036;-72
2022/04/28 04:21:34;;;;;;;;;;;;;;;;;;2216864;66;1091;-71
2022/04/28 04:24:07;;;;;;;;;;;;;;;;;;2217463;66;1213;-72
2022/04/28 04:26:43;;;;;;;;;;;;;;;;;;2215755;59;2213;-71
2022/04/28 04:29:16;;;;;;;;;;;;;;;;;;2216204;58;2641;-72
2022/04/28 04:34:38;;;;;;;;;;;;;;;;;;2217463;66;1095;-72
2022/04/28 04:37:11;;;;;;;;;;;;;;;;;;2217495;58;1969;-72
2022/04/28 04:39:45;;;;;;;;;;;;;;;;;;2216502;59;1217;-72
2022/04/28 04:42:20;;;;;;;;;;;;;;;;;;2217574;59;1017;-72
2022/04/28 04:44:53;;;;;;;;;;;;;;;;;;2217701;66;1219;-72
2022/04/28 04:47:27;;;;;;;;;;;;;;;;;;2217655;59;2341;-71
2022/04/28 04:50:00;;;;;;;;;;;;;;;;;;2217586;66;1104;-72
2022/04/28 04:52:33;;;;;;;;;;;;;;;;;;2218489;66;1196;-72
2022/04/28 04:55:07;;;;;;;;;;;;;;;;;;2213973;66;1162;-72
2022/04/28 04:57:42;;;;;;;;;;;;;;;;;;2216486;58;2044;-72
2022/04/28 05:00:16;;;;;;;;;;;;;;;;;;2217016;66;1225;-71
2022/04/28 05:02:49;;;;;;;;;;;;;;;;;;2217822;66;1040;-71
2022/04/28 05:05:22;;;;;;;;;;;;;;;;;;2217432;59;1280;-71
2022/04/28 05:07:55;;;;;;;;;;;;;;;;;;2217623;66;1936;-71
2022/04/28 05:10:28;;;;;;;;;;;;;;;;;;2218928;66;1275;-71
2022/04/28 05:13:04;;;;;;;;;;;;;;;;;;2213507;59;2089;-72
2022/04/28 05:15:37;;;;;;;;;;;;;;;;;;2215673;58;1927;-71
2022/04/28 05:18:10;;;;;;;;;;;;;;;;;;2216627;59;2260;-71
2022/04/28 05:20:44;;;;;;;;;;;;;;;;;;2215836;59;1697;-72
2022/04/28 05:23:17;;;;;;;;;;;;;;;;;;2216790;59;1727;-72
2022/04/28 05:25:50;;;;;;;;;;;;;;;;;;2216049;58;1992;-71
2022/04/28 05:28:27;;;;;;;;;;;;;;;;;;2216453;59;2537;-72
2022/04/28 05:31:00;;;;;;;;;;;;;;;;;;2215870;58;2340;-72
2022/04/28 05:33:33;;;;;;;;;;;;;;;;;;2215582;66;1052;-71
2022/04/28 05:36:09;;;;;;;;;;;;;;;;;;2215668;58;2343;-72
2022/04/28 05:38:42;;;;;;;;;;;;;;;;;;2216480;59;1268;-72
2022/04/28 05:41:15;;;;;;;;;;;;;;;;;;2217185;58;1775;-72
2022/04/28 05:46:40;;;;;;;;;;;;;;;;;;2217053;66;2280;-72
2022/04/28 05:49:13;;;;;;;;;;;;;;;;;;2217998;58;1583;-71
2022/04/28 05:51:46;;;;;;;;;;;;;;;;;;2217279;58;1238;-72
2022/04/28 05:54:19;;;;;;;;;;;;;;;;;;2216721;66;1193;-71
2022/04/28 05:56:53;;;;;;;;;;;;;;;;;;2216271;58;2115;-72
2022/04/28 05:59:29;;;;;;;;;;;;;;;;;;2216799;66;1282;-72
2022/04/28 06:02:02;;;;;;;;;;;;;;;;;;2215858;59;1272;-71
2022/04/28 06:04:35;;;;;;;;;;;;;;;;;;2217314;58;1149;-71
2022/04/28 06:07:10;;;;;;;;;;;;;;;;;;2217114;59;1994;-71
2022/04/28 06:09:43;;;;;;;;;;;;;;;;;;2216634;66;1080;-72
2022/04/28 06:12:16;;;;;;;;;;;;;;;;;;2217998;66;1255;-71
2022/04/28 06:14:54;;;;;;;;;;;;;;;;;;2216176;58;1793;-72
2022/04/28 06:17:27;;;;;;;;;;;;;;;;;;2214863;58;1886;-72
2022/04/28 06:20:00;;;;;;;;;;;;;;;;;;2216323;66;1127;-71
2022/04/28 06:22:33;;;;;;;;;;;;;;;;;;2216956;66;1151;-72
2022/04/28 06:25:07;;;;;;;;;;;;;;;;;;2216477;59;1235;-71
2022/04/28 06:27:40;;;;;;;;;;;;;;;;;;2216575;59;1939;-72
2022/04/28 06:30:16;;;;;;;;;;;;;;;;;;2208444;58;2306;-72
2022/04/28 06:32:49;;;;;;;;;;;;;;;;;;2214908;58;1644;-72
2022/04/28 06:35:22;;;;;;;;;;;;;;;;;;2213968;58;1926;-72
2022/04/28 06:37:56;;;;;;;;;;;;;;;;;;2217104;58;1942;-70
2022/04/28 06:40:29;;;;;;;;;;;;;;;;;;2218096;66;1285;-72
2022/04/28 06:43:02;;;;;;;;;;;;;;;;;;2217915;58;1226;-71
2022/04/28 06:45:38;;;;;;;;;;;;;;;;;;2218025;66;1217;-72
2022/04/28 06:48:11;;;;;;;;;;;;;;;;;;2218327;58;2245;-72
2022/04/28 06:50:44;;;;;;;;;;;;;;;;;;2217364;58;1738;-70
2022/04/28 06:53:17;;;;;;;;;;;;;;;;;;2218279;59;1282;-72
2022/04/28 06:55:51;;;;;;;;;;;;;;;;;;2214825;58;1733;-72
2022/04/28 06:58:24;;;;;;;;;;;;;;;;;;2216115;58;1233;-72
2022/04/28 07:01:00;;;;;;;;;;;;;;;;;;2215568;59;1255;-72
2022/04/28 07:03:33;;;;;;;;;;;;;;;;;;2216426;66;1195;-72
2022/04/28 07:06:06;;;;;;;;;;;;;;;;;;2215435;53;3573;-71
2022/04/28 07:08:39;;;;;;;;;;;;;;;;;;2211739;59;1999;-71
2022/04/28 07:11:12;;;;;;;;;;;;;;;;;;2213017;58;1518;-71
2022/04/28 07:13:45;;;;;;;;;;;;;;;;;;2212605;58;1686;-71
2022/04/28 07:16:21;;;;;;;;;;;;;;;;;;2213654;58;1786;-72
2022/04/28 07:18:54;;;;;;;;;;;;;;;;;;2213453;59;1212;-71
2022/04/28 07:21:27;;;;;;;;;;;;;;;;;;2213830;59;1253;-72
2022/04/28 07:24:01;;;;;;;;;;;;;;;;;;2213857;58;1669;-72
2022/04/28 07:26:34;;;;;;;;;;;;;;;;;;2213543;59;1994;-72
2022/04/28 07:29:07;;;;;;;;;;;;;;;;;;2213829;59;1227;-71
2022/04/28 07:31:43;;;;;;;;;;;;;;;;;;2214125;58;1201;-71
2022/04/28 07:34:17;;;;;;;;;;;;;;;;;;2214215;59;1203;-72
2022/04/28 07:36:50;;;;;;;;;;;;;;;;;;2214117;67;1202;-72
2022/04/28 07:39:23;;;;;;;;;;;;;;;;;;2213443;59;1131;-72
2022/04/28 07:41:56;;;;;;;;;;;;;;;;;;2214325;59;1329;-72
2022/04/28 07:44:29;;;;;;;;;;;;;;;;;;2213399;67;1204;-72
2022/04/28 07:47:05;;;;;;;;;;;;;;;;;;2213426;59;1976;-71
2022/04/28 07:49:38;;;;;;;;;;;;;;;;;;2214261;59;1783;-72
2022/04/28 07:52:12;;;;;;;;;;;;;;;;;;2214631;59;1224;-72
2022/04/28 07:54:45;;;;;;;;;;;;;;;;;;2214177;59;1122;-72
2022/04/28 07:57:22;;;;;;;;;;;;;;;;;;2214337;59;1218;-72
2022/04/28 07:59:55;;;;;;;;;;;;;;;;;;2214208;59;1187;-72
2022/04/28 08:02:32;;;;;;;;;;;;;;;;;;2214159;67;1106;-72
2022/04/28 08:05:05;;;;;;;;;;;;;;;;;;2213707;58;1826;-72
2022/04/28 08:07:38;;;;;;;;;;;;;;;;;;2213253;59;1937;-72
2022/04/28 08:10:12;;;;;;;;;;;;;;;;;;2213972;59;1914;-72
2022/04/28 08:12:45;;;;;;;;;;;;;;;;;;2214734;59;1219;-72
2022/04/28 08:15:19;;;;;;;;;;;;;;;;;;2212770;59;1915;-72
2022/04/28 08:17:55;;;;;;;;;;;;;;;;;;2214190;59;1193;-72
2022/04/28 08:20:28;;;;;;;;;;;;;;;;;;2214127;67;1148;-72
2022/04/28 08:23:01;;;;;;;;;;;;;;;;;;2214020;66;1179;-73
2022/04/28 08:25:34;;;;;;;;;;;;;;;;;;2214387;59;1833;-72
2022/04/28 08:28:07;;;;;;;;;;;;;;;;;;2214220;67;1935;-72
2022/04/28 08:30:41;;;;;;;;;;;;;;;;;;2215175;59;1596;-73
2022/04/28 08:33:16;;;;;;;;;;;;;;;;;;2213645;59;1254;-72
2022/04/28 08:35:50;;;;;;;;;;;;;;;;;;2214023;59;1253;-72
2022/04/28 08:38:24;;;;;;;;;;;;;;;;;;2215581;59;1784;-72
2022/04/28 08:41:01;;;;;;;;;;;;;;;;;;2215103;67;1117;-72
2022/04/28 08:43:35;;;;;;;;;;;;;;;;;;2215001;59;1203;-72
2022/04/28 08:49:01;;;;;;;;;;;;;;;;;;2214524;59;1992;-72
2022/04/28 08:51:35;;;;;;;;;;;;;;;;;;2212552;58;1578;-72
2022/04/28 08:54:08;;;;;;;;;;;;;;;;;;2214020;59;1665;-72
2022/04/28 08:56:42;;;;;;;;;;;;;;;;;;2214714;67;1422;-72
2022/04/28 08:59:15;;;;;;;;;;;;;;;;;;2213595;58;1125;-72
2022/04/28 09:01:50;;;;;;;;;;;;;;;;;;2212536;67;1414;-72
2022/04/28 09:04:27;;;;;;;;;;;;;;;;;;2214117;67;1179;-72
2022/04/28 09:07:00;;;;;;;;;;;;;;;;;;2213835;59;1818;-72
2022/04/28 09:09:35;;;;;;;;;;;;;;;;;;2213104;59;1941;-72
2022/04/28 09:12:08;;;;;;;;;;;;;;;;;;2214349;59;1292;-73
2022/04/28 09:14:43;;;;;;;;;;;;;;;;;;2213720;67;1106;-72
2022/04/28 09:17:17;;;;;;;;;;;;;;;;;;2212487;67;1291;-72
2022/04/28 09:20:00;;;;;;;;;;;;;;;;;;2214633;67;1294;-72
2022/04/28 09:22:33;;;;;;;;;;;;;;;;;;2214575;59;1235;-72
2022/04/28 09:25:11;;;;;;;;;;;;;;;;;;2213093;67;1246;-72
2022/04/28 09:27:44;;;;;;;;;;;;;;;;;;2213918;59;1976;-72
2022/04/28 09:30:17;;;;;;;;;;;;;;;;;;2214448;59;1317;-72
2022/04/28 09:32:53;;;;;;;;;;;;;;;;;;2214797;59;1320;-72
2022/04/28 09:35:29;;;;;;;;;;;;;;;;;;2214042;59;2001;-72
2022/04/28 09:38:02;;;;;;;;;;;;;;;;;;2214020;59;1053;-72
2022/04/28 09:43:27;;;;;;;;;;;;;;;;;;2213998;67;1304;-72
2022/04/28 09:46:01;;;;;;;;;;;;;;;;;;2214121;59;1813;-73
2022/04/28 09:48:36;;;;;;;;;;;;;;;;;;2212495;59;1941;-72
2022/04/28 09:51:13;;;;;;;;;;;;;;;;;;2212641;59;2268;-73
2022/04/28 09:53:47;;;;;;;;;;;;;;;;;;2213129;59;1301;-72
2022/04/28 09:56:24;;;;;;;;;;;;;;;;;;2215109;67;1376;-73
2022/04/28 09:58:57;;;;;;;;;;;;;;;;;;2214071;67;1240;-73
2022/04/28 10:01:31;;;;;;;;;;;;;;;;;;2213306;66;1301;-73
2022/04/28 10:04:04;;;;;;;;;;;;;;;;;;2214060;67;1283;-73
2022/04/28 10:06:40;;;;;;;;;;;;;;;;;;2213559;59;1829;-72
2022/04/28 10:09:13;;;;;;;;;;;;;;;;;;2212103;67;1945;-73
2022/04/28 10:11:50;;;;;;;;;;;;;;;;;;2212770;59;2655;-73
2022/04/28 10:14:24;;;;;;;;;;;;;;;;;;2214274;59;2430;-72
2022/04/28 10:16:58;;;;;;;;;;;;;;;;;;2214400;59;2318;-72
2022/04/28 10:19:34;;;;;;;;;;;;;;;;;;2213789;59;2543;-73
2022/04/28 10:22:13;;;;;;;;;;;;;;;;;;2210893;59;2354;-72
2022/04/28 10:33:14;;;;;;;;;;;;;;;;;;2213074;59;2323;-73
2022/04/28 10:35:48;;;;;;;;;;;;;;;;;;2212823;59;1408;-72
2022/04/28 10:38:26;;;;;;;;;;;;;;;;;;2213291;59;2650;-72
2022/04/28 10:41:01;;;;;;;;;;;;;;;;;;2214534;59;2543;-72
2022/04/28 10:43:39;;;;;;;;;;;;;;;;;;2213524;59;2561;-72
2022/04/28 10:46:27;;;;;;;;;;;;;;;;;;2212709;59;2327;-72
2022/04/28 10:49:03;;;;;;;;;;;;;;;;;;2212055;59;2626;-72
2022/04/28 10:51:36;;;;;;;;;;;;;;;;;;2213078;59;2617;-72
2022/04/28 10:54:14;;;;;;;;;;;;;;;;;;2214458;59;2346;-72
2022/04/28 10:57:01;;;;;;;;;;;;;;;;;;2213672;59;2316;-72
2022/04/28 10:59:38;;;;;;;;;;;;;;;;;;2213031;59;2823;-72
2022/04/28 11:02:32;;;;;;;;;;;;;;;;;;2214743;59;2786;-73
2022/04/28 11:05:25;;;;;;;;;;;;;;;;;;2214062;59;2788;-72
2022/04/28 11:08:01;;;;;;;;;;;;;;;;;;2213550;59;2550;-72
2022/04/28 11:10:35;;;;;;;;;;;;;;;;;;2212215;58;3499;-73
2022/04/28 11:13:11;;;;;;;;;;;;;;;;;;2213574;59;2274;-73
2022/04/28 11:15:48;;;;;;;;;;;;;;;;;;2212842;59;1773;-72
2022/04/28 11:18:21;;;;;;;;;;;;;;;;;;2213573;58;1126;-72
2022/04/28 11:20:59;;;;;;;;;;;;;;;;;;2213561;59;1903;-72
2022/04/28 11:23:41;;;;;;;;;;;;;;;;;;2213890;59;2711;-72
2022/04/28 11:26:14;;;;;;;;;;;;;;;;;;2214655;59;2890;-72
2022/04/28 11:28:48;;;;;;;;;;;;;;;;;;2213569;59;2421;-72
2022/04/28 11:31:21;;;;;;;;;;;;;;;;;;2213899;59;1270;-73
2022/04/28 11:33:54;;;;;;;;;;;;;;;;;;2213347;59;2559;-72
2022/04/28 11:36:28;;;;;;;;;;;;;;;;;;2213233;59;2657;-71
2022/04/28 11:39:05;;;;;;;;;;;;;;;;;;2213184;58;2508;-72
2022/04/28 11:41:39;;;;;;;;;;;;;;;;;;2214328;59;1943;-72
2022/04/28 11:44:16;;;;;;;;;;;;;;;;;;2215677;59;2752;-72
2022/04/28 11:46:50;;;;;;;;;;;;;;;;;;2214478;59;2445;-72
2022/04/28 11:49:24;;;;;;;;;;;;;;;;;;2214289;59;2685;-72
2022/04/28 11:51:57;;;;;;;;;;;;;;;;;;2215001;59;2701;-72
2022/04/28 11:54:33;;;;;;;;;;;;;;;;;;2214019;58;2375;-72
2022/04/28 11:57:09;;;;;;;;;;;;;;;;;;2213848;59;1805;-72
2022/04/28 11:59:43;;;;;;;;;;;;;;;;;;2214614;59;1335;-72
2022/04/28 12:02:28;;;;;;;;;;;;;;;;;;2213057;58;2320;-72
2022/04/28 12:05:02;;;;;;;;;;;;;;;;;;2213915;59;2434;-72
2022/04/28 12:07:36;;;;;;;;;;;;;;;;;;2212741;59;1436;-72
2022/04/28 12:16:01;;;;;;;;;;;;;;;;;;2214295;59;2369;-72
2022/04/28 12:21:24;;;;;;;;;;;;;;;;;;2214182;59;2411;-72
2022/04/28 12:23:58;;;;;;;;;;;;;;;;;;2215187;59;2371;-72
2022/04/28 12:26:39;;;;;;;;;;;;;;;;;;2214001;59;2614;-72
2022/04/28 12:29:13;;;;;;;;;;;;;;;;;;2214002;59;2830;-72
2022/04/28 12:31:47;;;;;;;;;;;;;;;;;;2213410;59;2833;-72
2022/04/28 12:34:25;;;;;;;;;;;;;;;;;;2213963;59;2391;-72
2022/04/28 12:37:00;;;;;;;;;;;;;;;;;;2213077;59;2521;-72
2022/04/28 12:39:34;;;;;;;;;;;;;;;;;;2213383;58;2653;-72
2022/04/28 12:42:15;;;;;;;;;;;;;;;;;;2212943;58;2578;-72
2022/04/28 12:44:48;;;;;;;;;;;;;;;;;;2213139;59;2386;-72
2022/04/28 12:47:22;;;;;;;;;;;;;;;;;;2213811;59;2431;-72
2022/04/28 12:49:55;;;;;;;;;;;;;;;;;;2213390;67;1976;-72
2022/04/28 12:52:30;;;;;;;;;;;;;;;;;;2214385;59;2587;-72
2022/04/28 12:55:03;;;;;;;;;;;;;;;;;;2213400;59;2398;-72
2022/04/28 12:57:39;;;;;;;;;;;;;;;;;;2213801;59;2268;-72
2022/04/28 13:00:14;;;;;;;;;;;;;;;;;;2213724;59;2293;-72
2022/04/28 13:02:50;;;;;;;;;;;;;;;;;;2217134;58;1519;-73
2022/04/28 13:05:23;;;;;;;;;;;;;;;;;;2212863;59;2915;-72
2022/04/28 13:07:57;;;;;;;;;;;;;;;;;;2213493;59;1215;-72
2022/04/28 13:10:30;;;;;;;;;;;;;;;;;;2212958;59;1985;-72
2022/04/28 13:13:06;;;;;;;;;;;;;;;;;;2214073;59;1310;-72
2022/04/28 13:15:40;;;;;;;;;;;;;;;;;;2214567;59;2013;-72
2022/04/28 13:18:13;;;;;;;;;;;;;;;;;;2213763;66;1234;-72
2022/04/28 13:20:46;;;;;;;;;;;;;;;;;;2214212;59;1192;-72
2022/04/28 13:23:19;;;;;;;;;;;;;;;;;;2214857;59;1286;-72
2022/04/28 13:25:53;;;;;;;;;;;;;;;;;;2213017;58;1744;-72
2022/04/28 13:28:29;;;;;;;;;;;;;;;;;;2211972;58;1900;-72
2022/04/28 13:31:02;;;;;;;;;;;;;;;;;;2212781;58;1795;-72
2022/04/28 13:33:37;;;;;;;;;;;;;;;;;;2214121;67;1036;-71
2022/04/28 13:36:11;;;;;;;;;;;;;;;;;;2213376;59;1844;-72
2022/04/28 13:38:44;;;;;;;;;;;;;;;;;;2214479;58;1739;-72
2022/04/28 13:41:18;;;;;;;;;;;;;;;;;;2213923;59;2042;-71
2022/04/28 13:43:54;;;;;;;;;;;;;;;;;;2214915;59;1731;-71
2022/04/28 13:46:27;;;;;;;;;;;;;;;;;;2212805;67;1238;-72
2022/04/28 13:49:00;;;;;;;;;;;;;;;;;;2213172;59;1945;-72
2022/04/28 13:51:33;;;;;;;;;;;;;;;;;;2213176;59;1678;-72
2022/04/28 13:54:06;;;;;;;;;;;;;;;;;;2213840;58;1690;-72
2022/04/28 13:56:40;;;;;;;;;;;;;;;;;;2214131;59;1774;-72
2022/04/28 13:59:16;;;;;;;;;;;;;;;;;;2213693;67;1290;-72
2022/04/28 14:01:49;;;;;;;;;;;;;;;;;;2214558;58;2407;-72
2022/04/28 14:04:25;;;;;;;;;;;;;;;;;;2213732;59;1293;-72
2022/04/28 14:06:58;;;;;;;;;;;;;;;;;;2215293;59;2354;-72
2022/04/28 14:09:32;;;;;;;;;;;;;;;;;;2213805;59;1979;-72
2022/04/28 14:12:05;;;;;;;;;;;;;;;;;;2214516;59;1265;-72
2022/04/28 14:14:42;;;;;;;;;;;;;;;;;;2213663;59;1193;-72
2022/04/28 14:17:15;;;;;;;;;;;;;;;;;;2214330;59;1943;-72
2022/04/28 14:19:48;;;;;;;;;;;;;;;;;;2214598;67;1047;-72
2022/04/28 14:22:21;;;;;;;;;;;;;;;;;;2214429;58;2367;-72
2022/04/28 14:24:54;;;;;;;;;;;;;;;;;;2214246;59;2598;-72
2022/04/28 14:27:28;;;;;;;;;;;;;;;;;;2213729;59;1550;-72
2022/04/28 14:30:05;;;;;;;;;;;;;;;;;;2213860;59;2467;-72
2022/04/28 14:32:39;;;;;;;;;;;;;;;;;;2212372;59;2616;-72
2022/04/28 14:35:13;;;;;;;;;;;;;;;;;;2212766;59;2545;-72
2022/04/28 14:37:46;;;;;;;;;;;;;;;;;;2213812;59;2276;-72
2022/04/28 14:40:19;;;;;;;;;;;;;;;;;;2213386;59;2528;-72
2022/04/28 14:42:52;;;;;;;;;;;;;;;;;;2213222;59;2590;-72
2022/04/28 14:45:29;;;;;;;;;;;;;;;;;;2213302;59;2414;-72
2022/04/28 14:48:02;;;;;;;;;;;;;;;;;;2213196;58;2804;-72
2022/04/28 14:53:24;;;;;;;;;;;;;;;;;;2212994;59;2622;-72
2022/04/28 14:55:57;;;;;;;;;;;;;;;;;;2214356;59;2623;-72
2022/04/28 14:58:31;;;;;;;;;;;;;;;;;;2213823;58;2765;-72
2022/04/28 15:01:09;;;;;;;;;;;;;;;;;;2215388;59;2436;-72
2022/04/28 15:03:43;;;;;;;;;;;;;;;;;;2212974;59;2360;-71
2022/04/28 15:06:16;;;;;;;;;;;;;;;;;;2214791;59;2503;-72
2022/04/28 15:08:49;;;;;;;;;;;;;;;;;;2213937;59;1812;-72
2022/04/28 15:11:23;;;;;;;;;;;;;;;;;;2215532;59;1947;-71
2022/04/28 15:13:56;;;;;;;;;;;;;;;;;;2213893;59;2665;-72
2022/04/28 15:16:32;;;;;;;;;;;;;;;;;;2213286;59;1797;-71
2022/04/28 15:19:05;;;;;;;;;;;;;;;;;;2212744;59;2169;-72
2022/04/28 15:21:40;;;;;;;;;;;;;;;;;;2212778;58;2609;-72
2022/04/28 15:24:13;;;;;;;;;;;;;;;;;;2214055;59;2383;-72
2022/04/28 15:26:46;;;;;;;;;;;;;;;;;;2213994;59;2343;-72
2022/04/28 15:29:20;;;;;;;;;;;;;;;;;;2212983;59;2446;-72
2022/04/28 15:31:56;;;;;;;;;;;;;;;;;;2213074;58;2725;-72
2022/04/28 15:34:29;;;;;;;;;;;;;;;;;;2213338;58;2069;-72
2022/04/28 15:37:03;;;;;;;;;;;;;;;;;;2213677;59;2408;-72
2022/04/28 15:39:36;;;;;;;;;;;;;;;;;;2213400;59;1984;-72
2022/04/28 15:42:09;;;;;;;;;;;;;;;;;;2212594;58;2486;-72
2022/04/28 15:44:42;;;;;;;;;;;;;;;;;;2213090;59;2670;-72
2022/04/28 15:47:18;;;;;;;;;;;;;;;;;;2212903;59;2470;-72
2022/04/28 15:49:51;;;;;;;;;;;;;;;;;;2213264;59;1927;-72
2022/04/28 15:52:25;;;;;;;;;;;;;;;;;;2213505;59;2388;-72
2022/04/28 15:54:59;;;;;;;;;;;;;;;;;;2212884;59;1236;-72
2022/04/28 15:57:32;;;;;;;;;;;;;;;;;;2212654;59;2489;-72
2022/04/28 16:00:07;;;;;;;;;;;;;;;;;;2214656;59;2750;-72
2022/04/28 16:02:43;;;;;;;;;;;;;;;;;;2213490;59;1428;-72
2022/04/28 16:05:16;;;;;;;;;;;;;;;;;;2212998;59;1773;-72
2022/04/28 16:07:49;;;;;;;;;;;;;;;;;;2215459;59;1448;-72
2022/04/28 16:10:22;;;;;;;;;;;;;;;;;;2214486;59;1929;-72
2022/04/28 16:12:55;;;;;;;;;;;;;;;;;;2213408;59;1340;-72
2022/04/28 16:15:28;;;;;;;;;;;;;;;;;;2213785;59;1683;-71
2022/04/28 16:18:04;;;;;;;;;;;;;;;;;;2213579;59;1692;-72
2022/04/28 16:20:37;;;;;;;;;;;;;;;;;;2213473;67;1143;-72
2022/04/28 16:23:11;;;;;;;;;;;;;;;;;;2213464;59;1481;-71
2022/04/28 16:25:44;;;;;;;;;;;;;;;;;;2213327;59;1234;-72
2022/04/28 16:28:17;;;;;;;;;;;;;;;;;;2214698;67;1074;-72
2022/04/28 16:30:50;;;;;;;;;;;;;;;;;;2213676;67;1992;-72
2022/04/28 16:33:26;;;;;;;;;;;;;;;;;;2214362;59;1754;-72
2022/04/28 16:35:59;;;;;;;;;;;;;;;;;;2214820;59;1873;-72
2022/04/28 16:38:34;;;;;;;;;;;;;;;;;;2212926;59;1437;-72
2022/04/28 16:41:07;;;;;;;;;;;;;;;;;;2213823;67;1179;-72
2022/04/28 16:43:41;;;;;;;;;;;;;;;;;;2215050;67;1195;-72
2022/04/28 16:46:14;;;;;;;;;;;;;;;;;;2213594;59;1684;-72
2022/04/28 16:48:50;;;;;;;;;;;;;;;;;;2213267;59;1619;-72
2022/04/28 16:51:23;;;;;;;;;;;;;;;;;;2213308;67;1990;-72
2022/04/28 16:53:57;;;;;;;;;;;;;;;;;;2214372;66;1373;-72
2022/04/28 16:56:32;;;;;;;;;;;;;;;;;;2213841;59;1639;-72
2022/04/28 16:59:05;;;;;;;;;;;;;;;;;;2212849;67;1190;-71
2022/04/28 17:01:38;;;;;;;;;;;;;;;;;;2213390;59;1182;-72
2022/04/28 17:04:15;;;;;;;;;;;;;;;;;;2213698;59;1202;-72
2022/04/28 17:06:49;;;;;;;;;;;;;;;;;;2213550;59;1264;-72
2022/04/28 17:09:22;;;;;;;;;;;;;;;;;;2214377;59;1745;-71
2022/04/28 17:11:57;;;;;;;;;;;;;;;;;;2214443;59;2005;-72
2022/04/28 17:14:30;;;;;;;;;;;;;;;;;;2214306;59;1508;-72
2022/04/28 17:17:04;;;;;;;;;;;;;;;;;;2213688;59;1560;-72
2022/04/28 17:19:41;;;;;;;;;;;;;;;;;;2213311;59;1564;-71
2022/04/28 17:22:16;;;;;;;;;;;;;;;;;;2213456;59;1779;-72
2022/04/28 17:24:49;;;;;;;;;;;;;;;;;;2212562;59;1230;-71
2022/04/28 17:27:22;;;;;;;;;;;;;;;;;;2214673;59;1191;-72
2022/04/28 17:29:56;;;;;;;;;;;;;;;;;;2213740;59;1984;-71
2022/04/28 17:32:29;;;;;;;;;;;;;;;;;;2212950;67;1289;-72
2022/04/28 17:35:05;;;;;;;;;;;;;;;;;;2212466;59;1824;-72
2022/04/28 17:37:38;;;;;;;;;;;;;;;;;;2213612;59;1734;-72
2022/04/28 17:40:13;;;;;;;;;;;;;;;;;;2213572;59;1289;-72
2022/04/28 17:42:46;;;;;;;;;;;;;;;;;;2214822;67;1234;-72
2022/04/28 17:45:19;;;;;;;;;;;;;;;;;;2213168;59;1273;-71
2022/04/28 17:47:52;;;;;;;;;;;;;;;;;;2214381;59;1291;-72
2022/04/28 17:50:28;;;;;;;;;;;;;;;;;;2213807;66;1937;-72
2022/04/28 17:53:02;;;;;;;;;;;;;;;;;;2212692;67;1116;-72
2022/04/28 18:01:14;;;;;;;;;;;;;;;;;;2213780;59;1662;-72
2022/04/28 18:03:47;;;;;;;;;;;;;;;;;;2212956;59;1761;-72
2022/04/28 18:06:23;;;;;;;;;;;;;;;;;;2213540;59;1631;-72
2022/04/28 18:08:56;;;;;;;;;;;;;;;;;;2213976;59;2154;-72
2022/04/28 18:11:30;;;;;;;;;;;;;;;;;;2212240;59;1928;-72
2022/04/28 18:14:03;;;;;;;;;;;;;;;;;;2212790;58;1758;-72
2022/04/28 18:16:36;;;;;;;;;;;;;;;;;;2213745;58;2097;-72
2022/04/28 18:19:09;;;;;;;;;;;;;;;;;;2214810;67;1035;-72
2022/04/28 18:21:45;;;;;;;;;;;;;;;;;;2212913;59;1419;-72
2022/04/28 18:24:20;;;;;;;;;;;;;;;;;;2213730;67;1277;-71
2022/04/28 18:26:57;;;;;;;;;;;;;;;;;;2213253;59;1726;-71
2022/04/28 18:29:32;;;;;;;;;;;;;;;;;;2213211;59;1754;-72
2022/04/28 18:32:06;;;;;;;;;;;;;;;;;;2214535;59;2010;-72
2022/04/28 18:34:40;;;;;;;;;;;;;;;;;;2214115;59;1466;-71
2022/04/28 18:45:43;;;;;;;;;;;;;;;;;;2215377;67;1248;-72
2022/04/28 18:48:16;;;;;;;;;;;;;;;;;;2213613;59;2455;-71
2022/04/28 18:50:49;;;;;;;;;;;;;;;;;;2213805;59;2973;-72